createdAt,value
2023-01-18T00:00:06.046Z,0
2023-01-18T00:01:06.426Z,0
2023-01-18T00:02:06.650Z,0
2023-01-18T00:03:06.986Z,0
2023-01-18T00:04:07.159Z,0
2023-01-18T00:05:07.449Z,0
2023-01-18T00:06:07.777Z,0
2023-01-18T00:07:07.952Z,0
2023-01-18T00:08:08.125Z,0
2023-01-18T00:09:08.309Z,0
2023-01-18T00:10:08.508Z,0
2023-01-18T00:11:08.693Z,0
2023-01-18T00:12:08.861Z,0
2023-01-18T00:13:09.048Z,0
2023-01-18T00:14:09.244Z,0
2023-01-18T00:15:09.430Z,0
2023-01-18T00:16:09.709Z,0
2023-01-18T00:17:10.088Z,0
2023-01-18T00:18:10.271Z,0
2023-01-18T00:19:10.437Z,0
2023-01-18T00:20:10.609Z,0
2023-01-18T00:21:10.781Z,0
2023-01-18T00:22:10.965Z,0
2023-01-18T00:23:11.145Z,0
2023-01-18T00:24:11.328Z,0
2023-01-18T00:25:11.505Z,0
2023-01-18T00:26:11.692Z,0
2023-01-18T00:27:11.873Z,0
2023-01-18T00:28:12.043Z,0
2023-01-18T00:29:12.211Z,0
2023-01-18T00:30:12.402Z,0
2023-01-18T00:31:12.599Z,0
2023-01-18T00:32:12.852Z,0
2023-01-18T00:33:13.019Z,0
2023-01-18T00:34:13.231Z,0
2023-01-18T00:35:13.409Z,0
2023-01-18T00:36:13.598Z,0
2023-01-18T00:37:13.766Z,0
2023-01-18T00:38:13.975Z,0
2023-01-18T00:39:14.164Z,0
2023-01-18T00:40:14.329Z,0
2023-01-18T00:41:14.522Z,0
2023-01-18T00:42:14.691Z,0
2023-01-18T00:43:14.867Z,0
2023-01-18T00:44:15.060Z,0
2023-01-18T00:45:15.233Z,0
2023-01-18T00:46:15.409Z,0
2023-01-18T00:47:15.595Z,0
2023-01-18T00:48:15.761Z,0
2023-01-18T00:49:15.921Z,0
2023-01-18T00:50:16.083Z,0
2023-01-18T00:51:16.269Z,0
2023-01-18T00:52:16.459Z,0
2023-01-18T00:53:16.640Z,0
2023-01-18T00:54:16.822Z,0
2023-01-18T00:55:16.992Z,0
2023-01-18T00:56:17.214Z,0
2023-01-18T00:57:17.382Z,0
2023-01-18T00:58:17.576Z,0
2023-01-18T00:59:17.768Z,0
2023-01-18T01:00:17.939Z,0
2023-01-18T01:01:18.204Z,0
2023-01-18T01:02:18.963Z,0
2023-01-18T01:03:19.230Z,0
2023-01-18T01:04:19.382Z,0
2023-01-18T01:05:19.573Z,0
2023-01-18T01:06:19.756Z,0
2023-01-18T01:07:19.938Z,0
2023-01-18T01:08:20.110Z,0
2023-01-18T01:09:20.301Z,0
2023-01-18T01:10:20.539Z,0
2023-01-18T01:11:20.705Z,0
2023-01-18T01:12:20.872Z,0
2023-01-18T01:13:21.053Z,0
2023-01-18T01:14:21.243Z,0
2023-01-18T01:15:21.414Z,0
2023-01-18T01:16:21.634Z,0
2023-01-18T01:17:21.859Z,0
2023-01-18T01:18:22.040Z,0
2023-01-18T01:19:22.210Z,0
2023-01-18T01:20:22.378Z,0
2023-01-18T01:21:22.562Z,0
2023-01-18T01:22:22.751Z,0
2023-01-18T01:23:22.925Z,0
2023-01-18T01:24:23.089Z,0
2023-01-18T01:25:23.271Z,0
2023-01-18T01:26:23.443Z,0
2023-01-18T01:27:23.603Z,0
2023-01-18T01:28:23.793Z,0
2023-01-18T01:29:23.983Z,0
2023-01-18T01:30:24.197Z,0
2023-01-18T01:31:24.473Z,0
2023-01-18T01:32:24.635Z,0
2023-01-18T01:33:24.808Z,0
2023-01-18T01:34:24.978Z,0
2023-01-18T01:35:25.169Z,0
2023-01-18T01:36:25.330Z,0
2023-01-18T01:37:25.502Z,0
2023-01-18T01:38:25.688Z,0
2023-01-18T01:39:25.875Z,0
2023-01-18T01:40:26.086Z,0
2023-01-18T01:41:26.247Z,0
2023-01-18T01:42:26.431Z,0
2023-01-18T01:43:26.597Z,0
2023-01-18T01:44:26.763Z,0
2023-01-18T01:45:26.940Z,0
2023-01-18T01:46:27.120Z,0
2023-01-18T01:47:27.290Z,0
2023-01-18T01:48:27.471Z,0
2023-01-18T01:49:27.647Z,0
2023-01-18T01:50:27.829Z,0
2023-01-18T01:51:27.989Z,0
2023-01-18T01:52:28.163Z,0
2023-01-18T01:53:28.343Z,0
2023-01-18T01:54:28.504Z,0
2023-01-18T01:55:28.672Z,0
2023-01-18T01:56:28.849Z,0
2023-01-18T01:57:29.026Z,0
2023-01-18T01:58:29.205Z,0
2023-01-18T01:59:29.380Z,0
2023-01-18T02:00:29.556Z,0
2023-01-18T02:01:29.786Z,0
2023-01-18T02:02:30.310Z,0
2023-01-18T02:03:30.599Z,0
2023-01-18T02:04:30.761Z,0
2023-01-18T02:05:30.953Z,0
2023-01-18T02:06:31.134Z,0
2023-01-18T02:07:31.864Z,0
2023-01-18T02:08:32.039Z,0
2023-01-18T02:09:32.261Z,0
2023-01-18T02:10:32.425Z,0
2023-01-18T02:11:32.622Z,0
2023-01-18T02:12:32.820Z,0
2023-01-18T02:13:32.986Z,0
2023-01-18T02:14:33.158Z,0
2023-01-18T02:15:33.363Z,0
2023-01-18T02:16:33.646Z,0
2023-01-18T02:17:34.021Z,0
2023-01-18T02:18:34.197Z,0
2023-01-18T02:19:34.360Z,0
2023-01-18T02:20:34.623Z,0
2023-01-18T02:21:34.803Z,0
2023-01-18T02:22:34.976Z,0
2023-01-18T02:23:35.157Z,0
2023-01-18T02:24:35.329Z,0
2023-01-18T02:25:35.498Z,0
2023-01-18T02:26:35.671Z,0
2023-01-18T02:27:35.839Z,0
2023-01-18T02:28:36.016Z,0
2023-01-18T02:29:36.187Z,0
2023-01-18T02:30:36.401Z,0
2023-01-18T02:31:36.672Z,0
2023-01-18T02:32:36.857Z,0
2023-01-18T02:33:37.039Z,0
2023-01-18T02:34:37.219Z,0
2023-01-18T02:35:37.424Z,0
2023-01-18T02:36:37.607Z,0
2023-01-18T02:37:37.777Z,0
2023-01-18T02:38:37.951Z,0
2023-01-18T02:39:38.123Z,0
2023-01-18T02:40:38.645Z,0
2023-01-18T02:41:38.820Z,0
2023-01-18T02:42:38.982Z,0
2023-01-18T02:43:39.155Z,0
2023-01-18T02:44:39.329Z,0
2023-01-18T02:45:39.493Z,0
2023-01-18T02:46:39.671Z,0
2023-01-18T02:47:39.849Z,0
2023-01-18T02:48:40.035Z,0
2023-01-18T02:49:40.200Z,0
2023-01-18T02:50:40.373Z,0
2023-01-18T02:51:40.586Z,0
2023-01-18T02:52:40.760Z,0
2023-01-18T02:53:40.930Z,0
2023-01-18T02:54:41.126Z,0
2023-01-18T02:55:41.292Z,0
2023-01-18T02:56:41.470Z,0
2023-01-18T02:57:41.669Z,0
2023-01-18T02:58:41.842Z,0
2023-01-18T02:59:42.029Z,0
2023-01-18T03:00:42.205Z,0
2023-01-18T03:01:42.451Z,0
2023-01-18T03:02:42.851Z,0
2023-01-18T03:03:43.174Z,0
2023-01-18T03:04:43.349Z,0
2023-01-18T03:05:43.522Z,0
2023-01-18T03:06:43.695Z,0
2023-01-18T03:07:43.865Z,0
2023-01-18T03:08:44.040Z,0
2023-01-18T03:09:44.210Z,0
2023-01-18T03:10:44.375Z,0
2023-01-18T03:11:44.552Z,0
2023-01-18T03:12:44.712Z,0
2023-01-18T03:13:44.882Z,0
2023-01-18T03:14:45.049Z,0
2023-01-18T03:15:45.251Z,0
2023-01-18T03:16:45.491Z,0
2023-01-18T03:17:45.659Z,0
2023-01-18T03:18:45.827Z,0
2023-01-18T03:19:45.985Z,0
2023-01-18T03:20:46.168Z,0
2023-01-18T03:21:46.333Z,0
2023-01-18T03:22:46.517Z,0
2023-01-18T03:23:46.692Z,0
2023-01-18T03:24:46.861Z,0
2023-01-18T03:25:47.065Z,0
2023-01-18T03:26:47.433Z,0
2023-01-18T03:27:47.815Z,0
2023-01-18T03:28:47.994Z,0
2023-01-18T03:29:48.165Z,0
2023-01-18T03:30:48.444Z,0
2023-01-18T03:31:48.668Z,0
2023-01-18T03:32:48.842Z,0
2023-01-18T03:33:49.017Z,0
2023-01-18T03:34:49.181Z,0
2023-01-18T03:35:49.360Z,0
2023-01-18T03:36:49.528Z,0
2023-01-18T03:37:49.699Z,0
2023-01-18T03:38:49.884Z,0
2023-01-18T03:39:50.061Z,0
2023-01-18T03:40:50.237Z,0
2023-01-18T03:41:50.418Z,0
2023-01-18T03:42:50.598Z,0
2023-01-18T03:43:50.770Z,0
2023-01-18T03:44:50.932Z,0
2023-01-18T03:45:51.118Z,0
2023-01-18T03:46:51.287Z,0
2023-01-18T03:47:51.482Z,0
2023-01-18T03:48:51.657Z,0
2023-01-18T03:49:51.831Z,0
2023-01-18T03:50:51.998Z,0
2023-01-18T03:51:52.173Z,0
2023-01-18T03:52:52.345Z,0
2023-01-18T03:53:52.511Z,0
2023-01-18T03:54:52.678Z,0
2023-01-18T03:55:52.848Z,0
2023-01-18T03:56:53.016Z,0
2023-01-18T03:57:53.236Z,0
2023-01-18T03:58:53.423Z,0
2023-01-18T03:59:53.589Z,0
2023-01-18T04:00:53.818Z,0
2023-01-18T04:01:54.106Z,0
2023-01-18T04:02:54.514Z,0
2023-01-18T04:03:55.100Z,0
2023-01-18T04:04:55.312Z,0
2023-01-18T04:05:55.481Z,0
2023-01-18T04:06:55.652Z,0
2023-01-18T04:07:55.820Z,0
2023-01-18T04:08:55.989Z,0
2023-01-18T04:09:56.153Z,0
2023-01-18T04:10:56.332Z,0
2023-01-18T04:11:56.522Z,0
2023-01-18T04:12:57.037Z,0
2023-01-18T04:13:58.330Z,0
2023-01-18T04:14:58.500Z,0
2023-01-18T04:15:58.745Z,0
2023-01-18T04:16:58.983Z,0
2023-01-18T04:17:59.151Z,0
2023-01-18T04:18:59.322Z,0
2023-01-18T04:19:59.517Z,0
2023-01-18T04:20:59.710Z,0
2023-01-18T04:21:59.900Z,0
2023-01-18T04:23:00.572Z,0
2023-01-18T04:24:01.662Z,0
2023-01-18T04:25:01.891Z,0
2023-01-18T04:26:02.081Z,0
2023-01-18T04:27:02.262Z,0
2023-01-18T04:28:02.436Z,0
2023-01-18T04:29:02.609Z,0
2023-01-18T04:30:02.817Z,0
2023-01-18T04:31:03.068Z,0
2023-01-18T04:32:03.318Z,0
2023-01-18T04:33:03.488Z,0
2023-01-18T04:34:03.660Z,0
2023-01-18T04:35:03.843Z,0
2023-01-18T04:36:04.026Z,0
2023-01-18T04:37:04.244Z,0
2023-01-18T04:38:04.428Z,0
2023-01-18T04:39:04.594Z,0
2023-01-18T04:40:04.767Z,0
2023-01-18T04:41:04.951Z,0
2023-01-18T04:42:05.123Z,0
2023-01-18T04:43:05.296Z,0
2023-01-18T04:44:05.478Z,0
2023-01-18T04:45:05.647Z,0
2023-01-18T04:46:05.853Z,0
2023-01-18T04:47:06.034Z,0
2023-01-18T04:48:06.225Z,0
2023-01-18T04:49:06.395Z,0
2023-01-18T04:50:06.575Z,0
2023-01-18T04:51:06.756Z,0
2023-01-18T04:52:06.927Z,0
2023-01-18T04:53:07.116Z,0
2023-01-18T04:54:07.284Z,0
2023-01-18T04:55:07.456Z,0
2023-01-18T04:56:07.626Z,0
2023-01-18T04:57:07.802Z,0
2023-01-18T04:58:07.985Z,0
2023-01-18T04:59:08.153Z,0
2023-01-18T05:00:08.867Z,0
2023-01-18T05:01:09.286Z,0
2023-01-18T05:02:09.802Z,0
2023-01-18T05:03:10.102Z,0
2023-01-18T05:04:10.319Z,0
2023-01-18T05:05:10.494Z,0
2023-01-18T05:06:10.673Z,0
2023-01-18T05:07:10.870Z,0
2023-01-18T05:08:11.043Z,0
2023-01-18T05:09:11.212Z,0
2023-01-18T05:10:11.385Z,0
2023-01-18T05:11:11.551Z,0
2023-01-18T05:12:11.726Z,0
2023-01-18T05:13:11.903Z,0
2023-01-18T05:14:12.093Z,0
2023-01-18T05:15:12.295Z,0
2023-01-18T05:16:12.554Z,0
2023-01-18T05:17:12.952Z,0
2023-01-18T05:18:13.184Z,0
2023-01-18T05:19:13.359Z,0
2023-01-18T05:20:13.533Z,0
2023-01-18T05:21:13.727Z,0
2023-01-18T05:22:13.909Z,0
2023-01-18T05:23:14.075Z,0
2023-01-18T05:24:14.331Z,0
2023-01-18T05:25:14.493Z,0
2023-01-18T05:26:14.697Z,0
2023-01-18T05:27:14.895Z,0
2023-01-18T05:28:15.087Z,0
2023-01-18T05:29:15.255Z,0
2023-01-18T05:30:15.431Z,0
2023-01-18T05:31:15.660Z,0
2023-01-18T05:32:15.974Z,0
2023-01-18T05:33:16.166Z,0
2023-01-18T05:34:16.331Z,0
2023-01-18T05:35:16.503Z,0
2023-01-18T05:36:16.748Z,0
2023-01-18T05:37:16.917Z,0
2023-01-18T05:38:17.095Z,0
2023-01-18T05:39:17.274Z,0
2023-01-18T05:40:17.448Z,0
2023-01-18T05:41:17.613Z,0
2023-01-18T05:42:17.802Z,0
2023-01-18T05:43:17.969Z,0
2023-01-18T05:44:18.138Z,0
2023-01-18T05:45:18.356Z,0
2023-01-18T05:46:18.722Z,0
2023-01-18T05:47:18.985Z,0
2023-01-18T05:48:19.180Z,0
2023-01-18T05:49:19.347Z,0
2023-01-18T05:50:19.519Z,0
2023-01-18T05:51:19.692Z,0
2023-01-18T05:52:19.851Z,0
2023-01-18T05:53:20.038Z,0
2023-01-18T05:54:20.203Z,0
2023-01-18T05:55:20.378Z,0
2023-01-18T05:56:20.552Z,0
2023-01-18T05:57:20.750Z,0
2023-01-18T05:58:20.922Z,0
2023-01-18T05:59:21.097Z,0
2023-01-18T06:00:21.271Z,0
2023-01-18T06:01:21.493Z,0
2023-01-18T06:02:21.869Z,0
2023-01-18T06:03:22.060Z,0
2023-01-18T06:04:22.328Z,0
2023-01-18T06:05:22.673Z,0
2023-01-18T06:06:22.874Z,0
2023-01-18T06:07:23.051Z,0
2023-01-18T06:08:23.227Z,0
2023-01-18T06:09:23.399Z,0
2023-01-18T06:10:23.582Z,0
2023-01-18T06:11:23.760Z,0
2023-01-18T06:12:23.947Z,0
2023-01-18T06:13:24.134Z,0
2023-01-18T06:14:24.330Z,0
2023-01-18T06:15:24.515Z,0
2023-01-18T06:16:24.789Z,0
2023-01-18T06:17:25.111Z,0
2023-01-18T06:18:25.297Z,0
2023-01-18T06:19:25.472Z,0
2023-01-18T06:20:25.648Z,0
2023-01-18T06:21:25.824Z,0
2023-01-18T06:22:26.002Z,0
2023-01-18T06:23:26.182Z,0
2023-01-18T06:24:26.359Z,0
2023-01-18T06:25:26.538Z,0
2023-01-18T06:26:26.725Z,0
2023-01-18T06:27:26.905Z,0
2023-01-18T06:28:29.113Z,0
2023-01-18T06:29:31.138Z,0
2023-01-18T06:30:31.316Z,0
2023-01-18T06:31:31.522Z,0
2023-01-18T06:32:31.828Z,0
2023-01-18T06:33:32.013Z,0
2023-01-18T06:34:32.197Z,0
2023-01-18T06:35:32.377Z,0
2023-01-18T06:36:32.556Z,0
2023-01-18T06:37:32.729Z,0
2023-01-18T06:38:32.903Z,0
2023-01-18T06:39:33.100Z,0
2023-01-18T06:40:33.419Z,0
2023-01-18T06:41:33.621Z,0
2023-01-18T06:42:33.791Z,0
2023-01-18T06:43:33.961Z,0
2023-01-18T06:44:34.138Z,0
2023-01-18T06:45:34.365Z,0
2023-01-18T06:46:34.635Z,0
2023-01-18T06:47:34.810Z,0
2023-01-18T06:48:35.100Z,0
2023-01-18T06:49:35.274Z,1
2023-01-18T06:50:35.457Z,2
2023-01-18T06:51:35.672Z,3
2023-01-18T06:52:35.857Z,4
2023-01-18T06:53:37.815Z,5
2023-01-18T06:54:38.242Z,6
2023-01-18T06:55:38.420Z,7
2023-01-18T06:56:38.595Z,7
2023-01-18T06:57:38.760Z,8
2023-01-18T06:58:38.928Z,8
2023-01-18T06:59:39.109Z,8
2023-01-18T07:00:39.278Z,9
2023-01-18T07:01:39.596Z,10
2023-01-18T07:02:40.153Z,11
2023-01-18T07:03:40.416Z,11
2023-01-18T07:04:40.714Z,13
2023-01-18T07:05:40.890Z,17
2023-01-18T07:06:41.083Z,21
2023-01-18T07:07:41.257Z,24
2023-01-18T07:08:41.439Z,27
2023-01-18T07:09:41.629Z,30
2023-01-18T07:10:41.808Z,33
2023-01-18T07:11:41.983Z,41
2023-01-18T07:12:42.152Z,46
2023-01-18T07:13:42.331Z,46
2023-01-18T07:14:42.493Z,51
2023-01-18T07:15:42.690Z,57
2023-01-18T07:16:42.916Z,57
2023-01-18T07:17:43.184Z,63
2023-01-18T07:18:43.345Z,70
2023-01-18T07:19:43.510Z,70
2023-01-18T07:20:43.684Z,77
2023-01-18T07:21:43.884Z,84.96
2023-01-18T07:22:44.065Z,94.96
2023-01-18T07:23:44.234Z,110
2023-01-18T07:24:44.420Z,110
2023-01-18T07:25:44.596Z,130
2023-01-18T07:26:44.764Z,130
2023-01-18T07:27:44.945Z,130
2023-01-18T07:28:45.116Z,150
2023-01-18T07:29:45.306Z,150
2023-01-18T07:30:45.475Z,169.92
2023-01-18T07:31:45.707Z,169.92
2023-01-18T07:32:46.024Z,169.92
2023-01-18T07:33:46.210Z,189.92
2023-01-18T07:34:46.393Z,209.92
2023-01-18T07:35:46.573Z,209.92
2023-01-18T07:36:46.740Z,209.92
2023-01-18T07:37:46.918Z,240
2023-01-18T07:38:47.104Z,240
2023-01-18T07:39:47.329Z,240
2023-01-18T07:40:47.498Z,269.92
2023-01-18T07:41:47.667Z,269.92
2023-01-18T07:42:47.843Z,269.92
2023-01-18T07:43:48.027Z,269.92
2023-01-18T07:44:48.213Z,300
2023-01-18T07:45:48.438Z,329.92
2023-01-18T07:46:48.722Z,369.92
2023-01-18T07:47:48.889Z,409.92
2023-01-18T07:48:49.087Z,459.84
2023-01-18T07:49:49.349Z,509.76
2023-01-18T07:50:50.205Z,509.76
2023-01-18T07:51:50.380Z,509.76
2023-01-18T07:52:50.557Z,569.92
2023-01-18T07:53:50.730Z,569.92
2023-01-18T07:54:50.889Z,569.92
2023-01-18T07:55:51.046Z,569.92
2023-01-18T07:56:51.214Z,569.92
2023-01-18T07:57:51.403Z,569.92
2023-01-18T07:58:51.671Z,569.92
2023-01-18T07:59:51.841Z,569.92
2023-01-18T08:00:52.091Z,569.92
2023-01-18T08:01:52.457Z,569.92
2023-01-18T08:02:52.822Z,629.76
2023-01-18T08:03:53.195Z,699.52
2023-01-18T08:04:53.358Z,769.92
2023-01-18T08:05:53.544Z,849.92
2023-01-18T08:06:53.726Z,849.92
2023-01-18T08:07:53.916Z,949.76
2023-01-18T08:08:54.097Z,949.76
2023-01-18T08:09:54.299Z,949.76
2023-01-18T08:10:54.481Z,949.76
2023-01-18T08:11:54.663Z,949.76
2023-01-18T08:12:54.823Z,949.76
2023-01-18T08:13:54.996Z,949.76
2023-01-18T08:14:55.193Z,949.76
2023-01-18T08:15:55.510Z,949.76
2023-01-18T08:16:56.070Z,839.68
2023-01-18T08:17:56.275Z,839.68
2023-01-18T08:18:56.452Z,839.68
2023-01-18T08:19:56.621Z,839.68
2023-01-18T08:20:56.807Z,839.68
2023-01-18T08:21:57.021Z,929.92
2023-01-18T08:22:57.557Z,929.92
2023-01-18T08:23:58.987Z,1040
2023-01-18T08:24:59.181Z,1159.68
2023-01-18T08:25:59.349Z,1280
2023-01-18T08:26:59.510Z,1440
2023-01-18T08:27:59.687Z,1440
2023-01-18T08:28:59.884Z,1600
2023-01-18T08:30:00.105Z,1600
2023-01-18T08:31:00.302Z,1760
2023-01-18T08:32:00.590Z,1760
2023-01-18T08:33:01.204Z,1939.2
2023-01-18T08:34:02.150Z,1939.2
2023-01-18T08:35:02.325Z,1939.2
2023-01-18T08:36:02.493Z,1939.2
2023-01-18T08:37:02.673Z,1939.2
2023-01-18T08:38:02.842Z,1939.2
2023-01-18T08:39:03.029Z,1939.2
2023-01-18T08:40:03.207Z,1939.2
2023-01-18T08:41:03.405Z,1939.2
2023-01-18T08:42:03.595Z,1939.2
2023-01-18T08:43:03.790Z,2099.2
2023-01-18T08:44:03.963Z,2099.2
2023-01-18T08:45:04.142Z,2319.36
2023-01-18T08:46:04.374Z,2319.36
2023-01-18T08:47:04.717Z,2319.36
2023-01-18T08:48:04.909Z,2319.36
2023-01-18T08:49:05.074Z,2319.36
2023-01-18T08:50:05.266Z,2319.36
2023-01-18T08:51:05.459Z,2560
2023-01-18T08:52:06.311Z,2839.04
2023-01-18T08:53:06.501Z,2839.04
2023-01-18T08:54:06.715Z,3138.56
2023-01-18T08:55:06.901Z,3138.56
2023-01-18T08:56:07.069Z,3458.56
2023-01-18T08:57:07.251Z,3458.56
2023-01-18T08:58:07.435Z,3458.56
2023-01-18T08:59:07.686Z,3458.56
2023-01-18T09:00:08.021Z,3458.56
2023-01-18T09:01:08.247Z,3458.56
2023-01-18T09:02:08.610Z,3857.92
2023-01-18T09:03:08.873Z,3857.92
2023-01-18T09:04:09.264Z,3857.92
2023-01-18T09:05:09.470Z,4277.76
2023-01-18T09:06:12.637Z,4277.76
2023-01-18T09:07:13.399Z,4277.76
2023-01-18T09:08:13.581Z,4277.76
2023-01-18T09:09:13.744Z,4277.76
2023-01-18T09:10:13.908Z,4277.76
2023-01-18T09:11:14.109Z,3819.52
2023-01-18T09:12:14.288Z,3819.52
2023-01-18T09:13:14.627Z,3819.52
2023-01-18T09:14:14.815Z,3819.52
2023-01-18T09:15:14.983Z,3417.6
2023-01-18T09:16:15.203Z,3417.6
2023-01-18T09:17:15.578Z,3417.6
2023-01-18T09:18:15.747Z,3059.2
2023-01-18T09:19:15.949Z,3059.2
2023-01-18T09:20:18.724Z,3059.2
2023-01-18T09:21:19.543Z,3097.6
2023-01-18T09:22:19.707Z,3097.6
2023-01-18T09:23:19.880Z,3097.6
2023-01-18T09:24:20.066Z,3097.6
2023-01-18T09:25:20.245Z,3097.6
2023-01-18T09:26:20.430Z,3097.6
2023-01-18T09:27:20.955Z,3097.6
2023-01-18T09:28:21.141Z,3059.2
2023-01-18T09:29:21.322Z,3059.2
2023-01-18T09:30:21.492Z,3059.2
2023-01-18T09:31:21.766Z,3059.2
2023-01-18T09:32:22.299Z,3059.2
2023-01-18T09:33:22.484Z,3059.2
2023-01-18T09:34:22.708Z,3059.2
2023-01-18T09:35:22.926Z,3059.2
2023-01-18T09:36:23.113Z,3059.2
2023-01-18T09:37:23.282Z,3059.2
2023-01-18T09:38:23.446Z,3258.88
2023-01-18T09:39:23.620Z,3258.88
2023-01-18T09:40:23.830Z,3258.88
2023-01-18T09:41:24.017Z,3258.88
2023-01-18T09:42:24.227Z,3258.88
2023-01-18T09:43:24.405Z,3258.88
2023-01-18T09:44:24.576Z,3258.88
2023-01-18T09:45:24.760Z,3258.88
2023-01-18T09:46:24.945Z,3258.88
2023-01-18T09:47:25.201Z,3258.88
2023-01-18T09:48:25.378Z,3358.72
2023-01-18T09:49:25.573Z,3358.72
2023-01-18T09:50:25.758Z,3358.72
2023-01-18T09:51:25.949Z,3358.72
2023-01-18T09:52:26.167Z,3358.72
2023-01-18T09:53:26.352Z,3358.72
2023-01-18T09:54:26.528Z,3358.72
2023-01-18T09:55:26.705Z,3018.24
2023-01-18T09:56:26.869Z,2698.24
2023-01-18T09:57:27.034Z,2419.2
2023-01-18T09:58:27.212Z,2138.88
2023-01-18T09:59:27.411Z,1920
2023-01-18T10:00:27.701Z,1719.04
2023-01-18T10:01:28.387Z,1719.04
2023-01-18T10:02:28.942Z,1719.04
2023-01-18T10:03:29.504Z,1719.04
2023-01-18T10:04:29.695Z,1719.04
2023-01-18T10:05:29.866Z,1920
2023-01-18T10:06:30.048Z,2119.68
2023-01-18T10:07:30.275Z,2119.68
2023-01-18T10:08:30.662Z,2359.04
2023-01-18T10:09:30.885Z,2599.68
2023-01-18T10:10:31.084Z,2599.68
2023-01-18T10:11:31.272Z,2859.52
2023-01-18T10:12:31.483Z,2859.52
2023-01-18T10:13:32.115Z,2859.52
2023-01-18T10:14:32.283Z,3159.04
2023-01-18T10:15:32.459Z,3159.04
2023-01-18T10:16:32.655Z,3479.04
2023-01-18T10:17:32.991Z,3479.04
2023-01-18T10:18:33.178Z,3479.04
2023-01-18T10:19:33.345Z,3479.04
2023-01-18T10:20:33.508Z,3479.04
2023-01-18T10:21:33.702Z,3840
2023-01-18T10:22:33.897Z,3840
2023-01-18T10:23:34.080Z,4259.84
2023-01-18T10:24:34.248Z,4259.84
2023-01-18T10:25:34.445Z,4259.84
2023-01-18T10:26:34.623Z,4259.84
2023-01-18T10:27:34.811Z,4259.84
2023-01-18T10:28:34.991Z,4259.84
2023-01-18T10:29:35.664Z,4259.84
2023-01-18T10:30:35.873Z,4259.84
2023-01-18T10:31:36.120Z,4718.08
2023-01-18T10:32:36.479Z,4718.08
2023-01-18T10:33:36.659Z,4718.08
2023-01-18T10:34:36.832Z,4718.08
2023-01-18T10:35:36.996Z,5199.36
2023-01-18T10:36:37.176Z,5199.36
2023-01-18T10:37:37.345Z,5199.36
2023-01-18T10:38:37.534Z,5199.36
2023-01-18T10:39:37.705Z,5719.04
2023-01-18T10:40:37.922Z,5719.04
2023-01-18T10:41:38.087Z,5719.04
2023-01-18T10:42:38.270Z,5719.04
2023-01-18T10:43:38.447Z,6318.08
2023-01-18T10:44:38.618Z,6318.08
2023-01-18T10:45:38.826Z,6318.08
2023-01-18T10:46:39.153Z,6318.08
2023-01-18T10:47:39.332Z,6318.08
2023-01-18T10:48:39.507Z,6318.08
2023-01-18T10:49:39.678Z,6318.08
2023-01-18T10:50:39.973Z,6318.08
2023-01-18T10:51:40.408Z,6318.08
2023-01-18T10:52:40.607Z,6978.56
2023-01-18T10:53:40.803Z,6978.56
2023-01-18T10:54:40.982Z,6978.56
2023-01-18T10:55:41.195Z,6978.56
2023-01-18T10:56:41.444Z,6978.56
2023-01-18T10:57:41.619Z,6978.56
2023-01-18T10:58:41.855Z,6978.56
2023-01-18T10:59:42.030Z,6978.56
2023-01-18T11:00:42.244Z,6978.56
2023-01-18T11:01:42.619Z,6978.56
2023-01-18T11:02:43.322Z,6978.56
2023-01-18T11:03:43.582Z,6978.56
2023-01-18T11:04:43.773Z,6978.56
2023-01-18T11:05:43.964Z,6978.56
2023-01-18T11:06:44.151Z,6277.12
2023-01-18T11:07:44.341Z,6277.12
2023-01-18T11:08:44.550Z,6277.12
2023-01-18T11:09:44.744Z,6277.12
2023-01-18T11:10:44.912Z,6277.12
2023-01-18T11:11:45.113Z,6277.12
2023-01-18T11:12:45.279Z,6277.12
2023-01-18T11:13:45.447Z,6277.12
2023-01-18T11:14:45.623Z,6277.12
2023-01-18T11:15:45.805Z,6277.12
2023-01-18T11:16:46.014Z,5939.2
2023-01-18T11:17:46.304Z,5939.2
2023-01-18T11:18:46.464Z,5939.2
2023-01-18T11:19:46.663Z,5939.2
2023-01-18T11:20:46.843Z,5939.2
2023-01-18T11:21:47.053Z,5939.2
2023-01-18T11:22:47.301Z,5939.2
2023-01-18T11:23:47.469Z,5939.2
2023-01-18T11:24:47.642Z,5939.2
2023-01-18T11:25:47.825Z,5939.2
2023-01-18T11:26:48.001Z,5959.68
2023-01-18T11:27:48.171Z,5959.68
2023-01-18T11:28:48.347Z,5959.68
2023-01-18T11:29:48.540Z,5959.68
2023-01-18T11:30:48.744Z,5959.68
2023-01-18T11:31:48.952Z,5959.68
2023-01-18T11:32:49.327Z,5959.68
2023-01-18T11:33:49.502Z,5959.68
2023-01-18T11:34:49.678Z,5959.68
2023-01-18T11:35:49.857Z,5959.68
2023-01-18T11:36:50.028Z,6077.44
2023-01-18T11:37:50.225Z,6077.44
2023-01-18T11:38:50.417Z,6077.44
2023-01-18T11:39:50.583Z,6077.44
2023-01-18T11:40:50.762Z,6077.44
2023-01-18T11:41:50.930Z,6077.44
2023-01-18T11:42:51.109Z,6077.44
2023-01-18T11:43:51.284Z,6077.44
2023-01-18T11:44:51.454Z,6077.44
2023-01-18T11:45:51.634Z,6138.88
2023-01-18T11:46:51.929Z,6138.88
2023-01-18T11:47:52.112Z,6138.88
2023-01-18T11:48:52.306Z,6138.88
2023-01-18T11:49:52.536Z,6138.88
2023-01-18T11:50:52.707Z,6138.88
2023-01-18T11:51:52.927Z,5519.36
2023-01-18T11:52:53.101Z,5519.36
2023-01-18T11:53:53.290Z,5519.36
2023-01-18T11:54:53.490Z,5519.36
2023-01-18T11:55:53.673Z,4958.72
2023-01-18T11:56:53.844Z,4958.72
2023-01-18T11:57:54.023Z,4958.72
2023-01-18T11:58:54.242Z,4958.72
2023-01-18T11:59:54.400Z,4958.72
2023-01-18T12:00:54.612Z,4418.56
2023-01-18T12:01:54.886Z,4418.56
2023-01-18T12:02:55.252Z,3939.84
2023-01-18T12:03:55.579Z,3939.84
2023-01-18T12:04:55.757Z,3537.92
2023-01-18T12:05:55.936Z,3537.92
2023-01-18T12:06:56.123Z,3179.52
2023-01-18T12:07:56.299Z,2859.52
2023-01-18T12:08:56.713Z,2859.52
2023-01-18T12:09:56.881Z,2859.52
2023-01-18T12:10:57.070Z,2859.52
2023-01-18T12:12:06.457Z,2560
2023-01-18T12:13:20.079Z,2479.36
2023-01-18T12:14:20.337Z,2479.36
2023-01-18T12:15:20.502Z,2479.36
2023-01-18T12:16:20.741Z,2479.36
2023-01-18T12:17:21.086Z,2479.36
2023-01-18T12:18:21.270Z,2479.36
2023-01-18T12:19:21.444Z,2479.36
2023-01-18T12:20:21.623Z,2479.36
2023-01-18T12:21:21.787Z,2400
2023-01-18T12:22:21.949Z,2400
2023-01-18T12:23:22.124Z,2400
2023-01-18T12:24:22.321Z,2400
2023-01-18T12:25:22.575Z,2400
2023-01-18T12:26:22.755Z,2639.36
2023-01-18T12:27:22.943Z,2639.36
2023-01-18T12:28:23.107Z,2639.36
2023-01-18T12:29:23.276Z,2639.36
2023-01-18T12:30:23.461Z,2918.4
2023-01-18T12:31:23.654Z,2918.4
2023-01-18T12:32:23.821Z,2918.4
2023-01-18T12:33:38.159Z,2918.4
2023-01-18T12:34:44.398Z,3258.88
2023-01-18T12:35:44.582Z,3258.88
2023-01-18T12:36:44.771Z,3258.88
2023-01-18T12:37:44.939Z,3258.88
2023-01-18T12:38:45.107Z,3558.4
2023-01-18T12:39:45.325Z,3558.4
2023-01-18T12:40:45.506Z,3558.4
2023-01-18T12:41:45.684Z,3558.4
2023-01-18T12:42:45.858Z,3558.4
2023-01-18T12:43:46.050Z,3558.4
2023-01-18T12:44:46.232Z,3558.4
2023-01-18T12:45:46.514Z,3919.36
2023-01-18T12:46:46.979Z,3919.36
2023-01-18T12:47:47.153Z,3919.36
2023-01-18T12:48:47.327Z,3919.36
2023-01-18T12:49:47.490Z,3919.36
2023-01-18T12:50:47.661Z,3919.36
2023-01-18T12:51:47.844Z,3919.36
2023-01-18T12:52:48.037Z,4318.72
2023-01-18T12:53:48.204Z,4318.72
2023-01-18T12:54:48.401Z,4318.72
2023-01-18T12:55:48.575Z,4318.72
2023-01-18T12:56:48.764Z,4779.52
2023-01-18T12:57:48.963Z,4779.52
2023-01-18T12:58:49.131Z,4779.52
2023-01-18T12:59:49.313Z,4779.52
2023-01-18T13:00:49.544Z,4779.52
2023-01-18T13:01:49.846Z,4779.52
2023-01-18T13:02:50.199Z,4779.52
2023-01-18T13:03:50.489Z,4779.52
2023-01-18T13:04:50.690Z,5278.72
2023-01-18T13:05:50.916Z,5278.72
2023-01-18T13:06:51.204Z,5278.72
2023-01-18T13:07:51.367Z,5278.72
2023-01-18T13:08:51.545Z,5278.72
2023-01-18T13:09:51.741Z,5278.72
2023-01-18T13:10:51.933Z,5278.72
2023-01-18T13:11:52.104Z,5816.32
2023-01-18T13:12:52.268Z,6456.32
2023-01-18T13:13:52.436Z,6456.32
2023-01-18T13:14:52.598Z,7178.24
2023-01-18T13:15:52.819Z,7976.96
2023-01-18T13:16:53.149Z,7976.96
2023-01-18T13:17:53.308Z,8796.16
2023-01-18T13:18:53.479Z,8796.16
2023-01-18T13:19:53.652Z,8796.16
2023-01-18T13:20:53.810Z,8796.16
2023-01-18T13:21:53.982Z,9697.28
2023-01-18T13:22:54.144Z,9697.28
2023-01-18T13:23:54.311Z,10792.96
2023-01-18T13:24:54.483Z,10792.96
2023-01-18T13:25:54.714Z,11991.04
2023-01-18T13:26:54.948Z,11991.04
2023-01-18T13:27:55.128Z,11991.04
2023-01-18T13:28:55.295Z,11991.04
2023-01-18T13:29:55.456Z,10792.96
2023-01-18T13:30:55.684Z,9656.32
2023-01-18T13:31:55.951Z,8535.04
2023-01-18T13:32:56.133Z,7680
2023-01-18T13:33:56.317Z,7680
2023-01-18T13:35:08.996Z,7680